createdAt,value
2017-11-16T00:00:23.584Z,8.93
2017-11-16T00:02:51.152Z,11.20
2017-11-16T00:05:18.727Z,9.73
2017-11-16T00:07:46.290Z,9.60
2017-11-16T00:10:13.863Z,13.53
2017-11-16T00:12:42.193Z,9.30
2017-11-16T00:15:10.003Z,10.20
2017-11-16T00:17:37.664Z,9.30
2017-11-16T00:20:05.235Z,9.67
2017-11-16T00:22:32.811Z,8.60
2017-11-16T00:25:01.124Z,8.20
2017-11-16T00:27:28.700Z,11.03
2017-11-16T00:29:56.251Z,11.10
2017-11-16T00:32:23.820Z,9.13
2017-11-16T00:34:51.420Z,8.90
2017-11-16T00:37:19.026Z,11.30
2017-11-16T00:39:46.599Z,10.27
2017-11-16T00:42:14.391Z,9.80
2017-11-16T00:44:41.963Z,14.50
2017-11-16T00:47:09.524Z,13.23
2017-11-16T00:49:37.104Z,9.60
2017-11-16T00:52:05.538Z,8.47
2017-11-16T00:54:33.147Z,10.47
2017-11-16T00:57:00.872Z,11.03
2017-11-16T00:59:28.444Z,13.47
2017-11-16T01:01:56.035Z,13.52
2017-11-16T01:04:23.578Z,11.73
2017-11-16T01:06:51.994Z,11.73
2017-11-16T01:09:20.331Z,10.77
2017-11-16T01:11:47.870Z,9.27
2017-11-16T01:14:15.460Z,15.45
2017-11-16T01:16:43.104Z,8.73
2017-11-16T01:19:10.693Z,8.80
2017-11-16T01:21:38.276Z,15.00
2017-11-16T01:24:06.653Z,11.00
2017-11-16T01:26:34.992Z,8.45
2017-11-16T01:29:02.592Z,10.00
2017-11-16T01:31:30.158Z,9.45
2017-11-16T01:33:58.668Z,11.55
2017-11-16T01:36:26.245Z,12.48
2017-11-16T01:38:53.804Z,11.50
2017-11-16T01:41:21.360Z,12.60
2017-11-16T01:43:48.934Z,11.00
2017-11-16T01:46:16.475Z,9.77
2017-11-16T01:48:44.066Z,13.30
2017-11-16T01:51:11.620Z,10.88
2017-11-16T01:53:39.334Z,15.38
2017-11-16T01:56:06.958Z,9.60
2017-11-16T01:58:34.613Z,14.30
2017-11-16T02:01:03.020Z,9.63
2017-11-16T02:03:30.573Z,7.97
2017-11-16T02:05:58.167Z,7.30
2017-11-16T02:08:25.723Z,10.40
2017-11-16T02:10:54.082Z,11.35
2017-11-16T02:13:21.640Z,9.20
2017-11-16T02:15:49.218Z,10.15
2017-11-16T02:18:16.846Z,9.30
2017-11-16T02:20:44.428Z,12.73
2017-11-16T02:23:12.007Z,11.07
2017-11-16T02:25:39.559Z,12.50
2017-11-16T02:28:07.153Z,8.95
2017-11-16T02:30:35.476Z,11.65
2017-11-16T02:33:03.069Z,6.68
2017-11-16T02:35:30.626Z,11.65
2017-11-16T02:37:58.182Z,8.50
2017-11-16T02:40:25.751Z,10.70
2017-11-16T02:42:54.187Z,6.93
2017-11-16T02:45:21.738Z,9.27
2017-11-16T02:47:49.320Z,10.57
2017-11-16T02:50:16.880Z,9.30
2017-11-16T02:52:44.427Z,9.30
2017-11-16T02:55:11.994Z,9.68
2017-11-16T02:57:39.555Z,8.05
2017-11-16T03:00:07.160Z,10.82
2017-11-16T03:02:34.713Z,9.65
2017-11-16T03:05:02.283Z,10.15
2017-11-16T03:07:29.871Z,9.18
2017-11-16T03:09:57.424Z,10.75
2017-11-16T03:12:24.999Z,8.93
2017-11-16T03:14:52.569Z,11.00
2017-11-16T03:17:20.128Z,9.73
2017-11-16T03:19:48.458Z,13.10
2017-11-16T03:22:16.029Z,17.80
2017-11-16T03:24:43.703Z,12.02
2017-11-16T03:27:11.259Z,10.20
2017-11-16T03:29:38.811Z,14.87
2017-11-16T03:32:06.462Z,13.30
2017-11-16T03:34:34.037Z,12.85
2017-11-16T03:37:01.633Z,12.07
2017-11-16T03:39:29.235Z,15.40
2017-11-16T03:41:57.735Z,17.87
2017-11-16T03:44:25.450Z,12.15
2017-11-16T03:46:53.034Z,16.10
2017-11-16T03:49:21.361Z,18.42
2017-11-16T03:51:49.792Z,21.30
2017-11-16T03:54:18.119Z,11.95
2017-11-16T03:56:45.671Z,16.08
2017-11-16T03:59:13.316Z,14.05
2017-11-16T04:01:40.875Z,21.48
2017-11-16T04:04:08.575Z,16.50
2017-11-16T04:06:36.159Z,11.98
2017-11-16T04:09:04.493Z,12.52
2017-11-16T04:11:32.064Z,13.45
2017-11-16T04:13:59.635Z,13.55
2017-11-16T04:16:27.205Z,14.73
2017-11-16T04:18:54.795Z,16.08
2017-11-16T04:21:22.370Z,13.57
2017-11-16T04:23:50.688Z,10.80
2017-11-16T04:26:18.276Z,15.27
2017-11-16T04:28:45.844Z,9.63
2017-11-16T04:31:13.408Z,13.15
2017-11-16T04:33:40.991Z,9.68
2017-11-16T04:36:09.327Z,12.25
2017-11-16T04:38:36.891Z,13.82
2017-11-16T04:41:04.452Z,11.63
2017-11-16T04:43:32.022Z,10.13
2017-11-16T04:45:59.628Z,12.95
2017-11-16T04:48:27.951Z,13.95
2017-11-16T04:50:55.525Z,12.23
2017-11-16T04:53:23.103Z,14.18
2017-11-16T04:55:50.656Z,18.42
2017-11-16T04:58:18.298Z,16.83
2017-11-16T05:00:45.841Z,12.50
2017-11-16T05:03:13.403Z,16.25
2017-11-16T05:05:40.990Z,17.62
2017-11-16T05:08:08.563Z,14.05
2017-11-16T05:10:36.932Z,17.52
2017-11-16T05:13:04.482Z,13.20
2017-11-16T05:15:32.048Z,17.37
2017-11-16T05:17:59.611Z,19.05
2017-11-16T05:20:27.173Z,16.37
2017-11-16T05:22:54.728Z,17.85
2017-11-16T05:25:22.346Z,16.65
2017-11-16T05:27:49.922Z,15.98
2017-11-16T05:30:18.253Z,18.30
2017-11-16T05:32:45.830Z,17.55
2017-11-16T05:35:13.407Z,20.40
2017-11-16T05:37:41.801Z,17.30
2017-11-16T05:40:10.130Z,17.83
2017-11-16T05:42:37.659Z,28.55
2017-11-16T05:45:06.237Z,18.08
2017-11-16T05:47:34.631Z,15.07
2017-11-16T05:50:02.230Z,17.20
2017-11-16T05:52:29.771Z,16.70
2017-11-16T05:54:57.350Z,15.68
2017-11-16T05:57:24.950Z,20.00
2017-11-16T05:59:52.523Z,17.10
2017-11-16T06:02:20.870Z,19.12
2017-11-16T06:04:48.450Z,17.62
2017-11-16T06:07:16.013Z,18.10
2017-11-16T06:09:44.336Z,18.20
2017-11-16T06:12:11.906Z,20.90
2017-11-16T06:14:39.483Z,17.77
2017-11-16T06:17:07.039Z,20.58
2017-11-16T06:19:34.608Z,20.10
2017-11-16T06:22:02.359Z,17.95
2017-11-16T06:24:29.924Z,19.67
2017-11-16T06:26:57.512Z,19.75
2017-11-16T06:29:25.199Z,23.23
2017-11-16T06:31:52.776Z,23.62
2017-11-16T06:34:21.131Z,16.48
2017-11-16T06:36:49.488Z,19.92
2017-11-16T06:39:16.988Z,19.02
2017-11-16T06:41:44.562Z,20.98
2017-11-16T06:44:12.129Z,18.85
2017-11-16T06:46:40.459Z,22.05
2017-11-16T06:49:08.087Z,19.92
2017-11-16T06:51:35.654Z,24.50
2017-11-16T06:54:03.231Z,20.80
2017-11-16T06:56:30.884Z,21.40
2017-11-16T06:58:58.456Z,19.23
2017-11-16T07:01:26.048Z,21.52
2017-11-16T07:03:53.620Z,20.70
2017-11-16T07:06:21.185Z,25.17
2017-11-16T07:08:48.747Z,23.95
2017-11-16T07:11:16.394Z,23.58
2017-11-16T07:13:43.953Z,21.58
2017-11-16T07:16:11.529Z,25.92
2017-11-16T07:18:39.096Z,28.90
2017-11-16T07:21:06.672Z,22.50
2017-11-16T07:23:34.992Z,23.62
2017-11-16T07:26:02.574Z,25.80
2017-11-16T07:28:30.147Z,23.87
2017-11-16T07:30:57.722Z,27.65
2017-11-16T07:33:25.305Z,22.48
2017-11-16T07:35:54.969Z,21.15
2017-11-16T07:38:22.796Z,24.50
2017-11-16T07:40:51.206Z,21.65
2017-11-16T07:43:18.792Z,23.62
2017-11-16T07:45:46.412Z,24.83
2017-11-16T07:48:14.025Z,24.70
2017-11-16T07:50:41.584Z,22.60
2017-11-16T07:53:10.092Z,21.42
2017-11-16T07:55:38.419Z,18.87
2017-11-16T07:58:05.985Z,23.62
2017-11-16T08:00:33.636Z,20.10
2017-11-16T08:03:01.207Z,16.17
2017-11-16T08:05:28.886Z,20.15
2017-11-16T08:07:56.450Z,21.73
2017-11-16T08:10:24.046Z,21.12
2017-11-16T08:12:52.367Z,17.87
2017-11-16T08:15:19.942Z,20.98
2017-11-16T08:17:47.522Z,21.98
2017-11-16T08:20:15.103Z,19.98
2017-11-16T08:22:43.432Z,17.77
2017-11-16T08:25:11.112Z,18.58
2017-11-16T08:27:38.719Z,20.20
2017-11-16T08:30:07.040Z,20.05
2017-11-16T08:32:34.599Z,19.23
2017-11-16T08:35:02.169Z,18.55
2017-11-16T08:37:29.720Z,18.05
2017-11-16T08:39:57.426Z,20.40
2017-11-16T08:42:25.054Z,17.80
2017-11-16T08:44:54.226Z,18.50
2017-11-16T08:47:21.825Z,22.92
2017-11-16T08:49:49.425Z,19.05
2017-11-16T08:52:17.032Z,23.02
2017-11-16T08:54:45.537Z,24.35
2017-11-16T08:57:13.233Z,20.40
2017-11-16T08:59:40.929Z,16.98
2017-11-16T09:02:08.515Z,18.85
2017-11-16T09:04:36.091Z,19.35
2017-11-16T09:07:03.651Z,20.35
2017-11-16T09:09:31.200Z,17.83
2017-11-16T09:11:58.807Z,24.65
2017-11-16T09:14:26.531Z,19.90
2017-11-16T09:16:54.108Z,24.77
2017-11-16T09:19:21.662Z,21.05
2017-11-16T09:21:49.228Z,21.55
2017-11-16T09:24:16.882Z,19.10
2017-11-16T09:26:44.463Z,20.65
2017-11-16T09:29:12.029Z,22.23
2017-11-16T09:31:39.589Z,21.98
2017-11-16T09:34:07.147Z,24.27
2017-11-16T09:36:34.723Z,26.10
2017-11-16T09:39:03.075Z,19.48
2017-11-16T09:41:31.460Z,20.75
2017-11-16T09:43:59.059Z,24.48
2017-11-16T09:46:26.667Z,23.50
2017-11-16T09:48:54.243Z,22.10
2017-11-16T09:51:21.819Z,25.77
2017-11-16T09:53:49.462Z,19.65
2017-11-16T09:56:17.028Z,22.50
2017-11-16T09:58:44.607Z,23.05
2017-11-16T10:01:12.171Z,22.65
2017-11-16T10:03:39.753Z,19.37
2017-11-16T10:06:07.529Z,17.23
2017-11-16T10:08:35.851Z,21.27
2017-11-16T10:11:03.475Z,19.83
2017-11-16T10:13:31.819Z,16.30
2017-11-16T10:15:59.419Z,18.73
2017-11-16T10:18:27.757Z,20.53
2017-11-16T10:20:55.375Z,18.43
2017-11-16T10:23:23.719Z,22.53
2017-11-16T10:25:51.284Z,23.53
2017-11-16T10:28:18.859Z,27.63
2017-11-16T10:30:46.408Z,22.30
2017-11-16T10:33:13.997Z,20.03
2017-11-16T10:35:42.471Z,18.53
2017-11-16T10:38:10.902Z,21.03
2017-11-16T10:40:38.479Z,21.60
2017-11-16T10:43:06.072Z,21.90
2017-11-16T10:45:33.615Z,20.60
2017-11-16T10:48:01.192Z,20.13
2017-11-16T10:50:28.783Z,20.37
2017-11-16T10:52:56.476Z,21.70
2017-11-16T10:55:24.131Z,21.97
2017-11-16T10:57:51.708Z,24.40
2017-11-16T11:00:19.296Z,21.10
2017-11-16T11:02:46.866Z,18.80
2017-11-16T11:05:14.427Z,18.03
2017-11-16T11:07:42.007Z,18.07
2017-11-16T11:10:10.431Z,20.60
2017-11-16T11:12:37.996Z,18.70
2017-11-16T11:15:05.583Z,18.47
2017-11-16T11:17:33.159Z,20.37
2017-11-16T11:20:00.723Z,17.90
2017-11-16T11:22:28.292Z,17.63
2017-11-16T11:24:56.642Z,22.97
2017-11-16T11:27:25.035Z,21.40
2017-11-16T11:29:52.600Z,21.23
2017-11-16T11:32:21.003Z,19.60
2017-11-16T11:34:49.347Z,18.63
2017-11-16T11:37:16.938Z,19.63
2017-11-16T11:39:44.501Z,19.40
2017-11-16T11:42:13.036Z,22.60
2017-11-16T11:44:40.600Z,18.40
2017-11-16T11:47:08.166Z,16.00
2017-11-16T11:49:35.743Z,19.90
2017-11-16T11:52:03.339Z,18.40
2017-11-16T11:54:31.668Z,20.43
2017-11-16T11:57:00.018Z,21.33
2017-11-16T11:59:27.683Z,17.33
2017-11-16T12:01:55.258Z,18.77
2017-11-16T12:04:22.831Z,19.97
2017-11-16T12:06:51.144Z,22.57
2017-11-16T12:09:18.782Z,22.17
2017-11-16T12:11:46.382Z,23.13
2017-11-16T12:14:13.984Z,20.50
2017-11-16T12:16:41.563Z,15.50
2017-11-16T12:19:09.944Z,18.20
2017-11-16T12:21:38.300Z,17.30
2017-11-16T12:24:05.859Z,17.00
2017-11-16T12:26:33.439Z,20.50
2017-11-16T12:29:01.038Z,18.50
2017-11-16T12:31:29.365Z,19.57
2017-11-16T12:33:57.189Z,20.23
2017-11-16T12:36:24.756Z,22.67
2017-11-16T12:38:52.320Z,15.10
2017-11-16T12:41:19.897Z,17.47
2017-11-16T12:43:47.445Z,15.17
2017-11-16T12:46:15.046Z,18.77
2017-11-16T12:48:42.666Z,16.63
2017-11-16T12:51:10.229Z,21.53
2017-11-16T12:53:37.788Z,16.23
2017-11-16T12:56:05.356Z,15.27
2017-11-16T12:58:32.912Z,22.73
2017-11-16T13:01:00.504Z,20.97
2017-11-16T13:03:28.080Z,21.27
2017-11-16T13:05:57.321Z,18.70
2017-11-16T13:08:25.077Z,17.07
2017-11-16T13:10:53.470Z,20.63
2017-11-16T13:13:21.271Z,18.63
2017-11-16T13:15:48.849Z,16.40
2017-11-16T13:18:17.364Z,16.47
2017-11-16T13:20:45.720Z,16.53
2017-11-16T13:23:14.343Z,15.43
2017-11-16T13:25:41.912Z,15.20
2017-11-16T13:28:10.643Z,15.77
2017-11-16T13:30:38.269Z,16.43
2017-11-16T13:33:05.966Z,17.30
2017-11-16T13:35:33.678Z,17.00
2017-11-16T13:38:01.365Z,18.40
2017-11-16T13:40:29.004Z,18.40
2017-11-16T13:42:56.589Z,18.90
2017-11-16T13:45:24.274Z,17.53
2017-11-16T13:47:51.836Z,15.13
2017-11-16T13:50:19.607Z,17.27
2017-11-16T13:52:47.222Z,16.77
2017-11-16T13:55:14.898Z,21.50
2017-11-16T13:57:42.542Z,21.23
2017-11-16T14:00:10.272Z,16.70
2017-11-16T14:02:37.840Z,21.13
2017-11-16T14:05:05.522Z,16.90
2017-11-16T14:07:34.095Z,21.73
2017-11-16T14:10:01.779Z,17.63
2017-11-16T14:12:29.390Z,21.63
2017-11-16T14:14:57.019Z,22.13
2017-11-16T14:17:24.667Z,23.30
2017-11-16T14:19:52.436Z,22.80
2017-11-16T14:22:21.777Z,15.30
2017-11-16T14:24:49.358Z,18.87
2017-11-16T14:27:17.023Z,21.53
2017-11-16T14:29:47.028Z,16.33
2017-11-16T14:32:14.684Z,16.87
2017-11-16T14:34:42.287Z,16.57
2017-11-16T14:37:12.745Z,18.70
2017-11-16T14:39:40.304Z,17.00
2017-11-16T14:42:07.977Z,19.40
2017-11-16T14:44:36.313Z,17.77
2017-11-16T14:47:03.964Z,22.00
2017-11-16T14:49:31.549Z,16.00
2017-11-16T14:51:59.269Z,19.57
2017-11-16T14:54:26.931Z,16.13
2017-11-16T14:56:54.570Z,18.03
2017-11-16T14:59:22.263Z,21.17
2017-11-16T15:01:50.670Z,17.47
2017-11-16T15:04:18.344Z,22.50
2017-11-16T15:06:45.942Z,17.33
2017-11-16T15:09:14.334Z,20.60
2017-11-16T15:11:42.799Z,18.00
2017-11-16T15:14:11.135Z,17.50
2017-11-16T15:16:38.739Z,18.73
2017-11-16T15:19:06.304Z,21.67
2017-11-16T15:21:33.942Z,18.97
2017-11-16T15:24:01.619Z,18.00
2017-11-16T15:26:29.326Z,17.27
2017-11-16T15:28:56.980Z,20.20
2017-11-16T15:31:24.611Z,18.93
2017-11-16T15:33:53.134Z,18.00
2017-11-16T15:36:20.692Z,19.10
2017-11-16T15:38:48.358Z,19.90
2017-11-16T15:41:16.765Z,16.47
2017-11-16T15:43:44.349Z,25.07
2017-11-16T15:46:11.941Z,22.50
2017-11-16T15:48:39.521Z,26.53
2017-11-16T15:51:07.214Z,21.00
2017-11-16T15:53:34.790Z,20.00
2017-11-16T15:56:02.394Z,29.17
2017-11-16T15:58:30.755Z,32.47
2017-11-16T16:00:58.370Z,21.10
2017-11-16T16:03:26.002Z,24.63
2017-11-16T16:05:54.431Z,17.48
2017-11-16T16:08:22.001Z,19.57
2017-11-16T16:10:49.760Z,15.87
2017-11-16T16:13:17.943Z,13.80
2017-11-16T16:15:45.533Z,17.43
2017-11-16T16:18:13.158Z,15.65
2017-11-16T16:20:40.827Z,18.37
2017-11-16T16:23:08.556Z,19.85
2017-11-16T16:25:36.928Z,18.17
2017-11-16T16:28:05.748Z,18.75
2017-11-16T16:30:33.350Z,16.98
2017-11-16T16:33:00.929Z,22.62
2017-11-16T16:35:30.872Z,18.80
2017-11-16T16:37:59.269Z,20.50
2017-11-16T16:40:27.622Z,18.92
2017-11-16T16:42:55.216Z,15.60
2017-11-16T16:45:34.333Z,19.05
2017-11-16T16:48:03.265Z,17.85
2017-11-16T16:50:30.924Z,16.30
2017-11-16T16:52:58.546Z,17.90
2017-11-16T16:55:26.122Z,17.02
2017-11-16T16:57:54.498Z,16.77
2017-11-16T17:00:22.937Z,18.67
2017-11-16T17:02:50.548Z,19.00
2017-11-16T17:05:18.892Z,17.40
2017-11-16T17:07:46.488Z,16.23
2017-11-16T17:10:14.846Z,19.45
2017-11-16T17:12:43.266Z,16.40
2017-11-16T17:15:10.851Z,19.33
2017-11-16T17:17:38.440Z,15.63
2017-11-16T17:20:06.039Z,21.17
2017-11-16T17:22:34.492Z,15.55
2017-11-16T17:25:02.059Z,23.15
2017-11-16T17:27:29.701Z,17.27
2017-11-16T17:29:57.285Z,17.00
2017-11-16T17:32:24.899Z,17.00
2017-11-16T17:34:52.495Z,16.70
2017-11-16T17:37:20.098Z,17.77
2017-11-16T17:39:48.519Z,16.23
2017-11-16T17:42:16.116Z,14.27
2017-11-16T17:44:43.705Z,16.30
2017-11-16T17:47:11.291Z,13.27
2017-11-16T17:49:39.595Z,18.08
2017-11-16T17:52:07.167Z,14.93
2017-11-16T17:54:34.922Z,16.98
2017-11-16T17:57:12.413Z,14.98
2017-11-16T17:59:40.017Z,14.65
2017-11-16T18:02:07.623Z,14.40
2017-11-16T18:04:35.220Z,13.75
2017-11-16T18:07:02.839Z,14.23
2017-11-16T18:09:30.441Z,13.80
2017-11-16T18:11:58.105Z,14.52
2017-11-16T18:14:25.681Z,14.40
2017-11-16T18:16:53.223Z,17.62
2017-11-16T18:19:20.973Z,17.50
2017-11-16T18:21:48.585Z,15.85
2017-11-16T18:24:16.207Z,14.05
2017-11-16T18:26:43.801Z,18.83
2017-11-16T18:29:11.385Z,20.10
2017-11-16T18:31:39.907Z,15.50
2017-11-16T18:34:07.512Z,16.37
2017-11-16T18:36:35.765Z,18.87
2017-11-16T18:39:03.415Z,15.85
2017-11-16T18:41:31.186Z,15.63
2017-11-16T18:43:58.793Z,16.67
2017-11-16T18:46:26.445Z,14.90
2017-11-16T18:48:54.076Z,16.12
2017-11-16T18:51:21.641Z,15.85
2017-11-16T18:53:49.245Z,14.48
2017-11-16T18:56:18.625Z,14.18
2017-11-16T18:58:47.028Z,16.30
2017-11-16T19:01:14.602Z,15.05
2017-11-16T19:03:42.186Z,14.93
2017-11-16T19:06:09.792Z,16.45
2017-11-16T19:08:37.372Z,13.35
2017-11-16T19:11:04.978Z,16.12
2017-11-16T19:13:32.553Z,14.02
2017-11-16T19:16:00.967Z,16.05
2017-11-16T19:18:28.575Z,12.82
2017-11-16T19:20:57.195Z,16.17
2017-11-16T19:23:25.549Z,13.48
2017-11-16T19:25:53.138Z,15.35
2017-11-16T19:28:20.844Z,15.98
2017-11-16T19:30:48.690Z,15.23
2017-11-16T19:33:16.491Z,13.88
2017-11-16T19:35:44.107Z,16.42
2017-11-16T19:38:12.512Z,17.70
2017-11-16T19:40:40.085Z,17.55
2017-11-16T19:43:14.872Z,20.75
2017-11-16T19:45:43.215Z,13.87
2017-11-16T19:48:11.628Z,19.92
2017-11-16T19:50:39.265Z,13.80
2017-11-16T19:53:06.924Z,13.10
2017-11-16T19:55:34.549Z,13.90
2017-11-16T19:58:02.146Z,27.80
2017-11-16T20:00:29.789Z,17.93
2017-11-16T20:02:57.445Z,18.05
2017-11-16T20:05:25.250Z,13.57
2017-11-16T20:07:52.840Z,15.70
2017-11-16T20:10:21.682Z,17.50
2017-11-16T20:12:49.300Z,13.05
2017-11-16T20:15:17.656Z,14.67
2017-11-16T20:17:45.264Z,14.80
2017-11-16T20:20:12.872Z,16.23
2017-11-16T20:22:40.916Z,16.00
2017-11-16T20:25:08.593Z,20.75
2017-11-16T20:27:36.379Z,17.45
2017-11-16T20:30:08.047Z,17.50
2017-11-16T20:32:36.105Z,20.90
2017-11-16T20:35:04.050Z,16.65
2017-11-16T20:37:37.766Z,17.83
2017-11-16T20:40:26.386Z,18.92
2017-11-16T20:46:12.856Z,20.08
2017-11-16T20:48:46.163Z,21.70
2017-11-16T20:51:32.048Z,19.07
2017-11-16T20:54:14.792Z,19.15
2017-11-16T20:56:43.339Z,21.73
2017-11-16T20:59:11.079Z,17.83
2017-11-16T21:01:40.019Z,19.45
2017-11-16T21:04:35.859Z,19.45
2017-11-16T21:07:05.018Z,18.17
2017-11-16T21:09:32.794Z,26.17
2017-11-16T21:12:00.716Z,20.23
2017-11-16T21:14:29.013Z,24.55
2017-11-16T21:16:56.984Z,18.73
2017-11-16T21:19:24.878Z,16.87
2017-11-16T21:21:54.303Z,20.65
2017-11-16T21:24:22.089Z,15.82
2017-11-16T21:26:49.737Z,19.55
2017-11-16T21:29:17.713Z,18.02
2017-11-16T21:31:47.584Z,15.30
2017-11-16T21:34:16.086Z,20.92
2017-11-16T21:36:43.770Z,20.00
2017-11-16T21:39:12.201Z,18.17
2017-11-16T21:41:39.841Z,18.40
2017-11-16T21:44:07.449Z,17.85
2017-11-16T21:46:35.221Z,18.60
2017-11-16T21:49:02.828Z,17.40
2017-11-16T21:51:30.455Z,18.30
2017-11-16T21:53:58.047Z,20.00
2017-11-16T21:56:25.873Z,21.30
2017-11-16T21:58:53.497Z,18.42
2017-11-16T22:01:21.963Z,20.85
2017-11-16T22:03:49.529Z,21.12
2017-11-16T22:06:17.938Z,19.48
2017-11-16T22:08:45.547Z,25.50
2017-11-16T22:11:13.147Z,20.45
2017-11-16T22:13:41.508Z,19.83
2017-11-16T22:16:09.910Z,17.47
2017-11-16T22:18:37.573Z,16.80
2017-11-16T22:21:05.933Z,17.92
2017-11-16T22:23:34.374Z,20.05
2017-11-16T22:26:01.963Z,29.00
2017-11-16T22:28:29.560Z,19.83
2017-11-16T22:30:57.920Z,20.33
2017-11-16T22:33:25.538Z,20.13
2017-11-16T22:35:53.144Z,20.70
2017-11-16T22:38:20.795Z,16.85
2017-11-16T22:40:48.365Z,21.02
2017-11-16T22:43:15.992Z,19.27
2017-11-16T22:45:43.604Z,19.10
2017-11-16T22:48:11.174Z,18.60
2017-11-16T22:50:39.575Z,16.40
2017-11-16T22:53:07.979Z,18.80
2017-11-16T22:55:35.574Z,18.35
2017-11-16T22:58:03.140Z,21.95
2017-11-16T23:00:30.704Z,17.17
2017-11-16T23:02:58.331Z,17.90
2017-11-16T23:05:26.001Z,18.63
2017-11-16T23:07:53.725Z,18.23
2017-11-16T23:10:22.048Z,17.47
2017-11-16T23:12:49.622Z,18.60
2017-11-16T23:15:17.190Z,22.40
2017-11-16T23:17:44.751Z,18.00
2017-11-16T23:20:12.411Z,18.63
2017-11-16T23:22:40.045Z,17.47
2017-11-16T23:25:07.621Z,18.00
2017-11-16T23:27:35.952Z,19.00
2017-11-16T23:30:03.558Z,20.13
2017-11-16T23:32:31.159Z,21.60
2017-11-16T23:35:11.546Z,18.90
2017-11-16T23:37:39.165Z,19.10
2017-11-16T23:40:06.724Z,16.80
2017-11-16T23:42:34.337Z,18.13
2017-11-16T23:45:01.930Z,17.57
2017-11-16T23:47:30.262Z,23.57
2017-11-16T23:49:57.826Z,21.60
2017-11-16T23:52:25.411Z,16.30
2017-11-16T23:54:53.008Z,18.70
2017-11-16T23:57:20.587Z,16.00
2017-11-16T23:59:48.194Z,17.30
